createdAt,value
2023-03-26T00:06:16.924Z,2
2023-03-26T00:16:20.440Z,9
2023-03-26T00:26:24.204Z,5
2023-03-26T00:36:28.158Z,5
2023-03-26T00:46:31.716Z,6
2023-03-26T00:56:35.677Z,2
2023-03-26T01:06:39.105Z,2
2023-03-26T01:16:42.449Z,4
2023-03-26T01:26:46.291Z,10
2023-03-26T01:36:49.382Z,9
2023-03-26T01:46:53.309Z,5
2023-03-26T02:07:00.983Z,4
2023-03-26T02:27:08.701Z,5
2023-03-26T02:37:11.806Z,2
2023-03-26T02:47:14.944Z,1
2023-03-26T02:57:18.329Z,2
2023-03-26T03:07:21.399Z,3
2023-03-26T03:17:25.215Z,1
2023-03-26T03:27:28.511Z,5
2023-03-26T03:37:32.193Z,2
2023-03-26T03:47:35.805Z,1
2023-03-26T03:57:38.966Z,2
2023-03-26T04:07:42.251Z,1
2023-03-26T04:17:46.129Z,0
2023-03-26T04:27:49.193Z,2
2023-03-26T04:37:52.975Z,0
2023-03-26T04:47:56.317Z,0
2023-03-26T04:57:59.974Z,0
2023-03-26T05:08:03.638Z,0
2023-03-26T05:18:07.082Z,0
2023-03-26T05:28:11.019Z,0
2023-03-26T05:38:14.755Z,0
2023-03-26T05:48:18.771Z,0
2023-03-26T05:58:22.773Z,0
2023-03-26T06:08:26.145Z,0
2023-03-26T06:28:33.743Z,0
2023-03-26T06:38:37.330Z,2
2023-03-26T06:48:40.767Z,0
2023-03-26T06:58:44.792Z,0
2023-03-26T07:08:48.660Z,0
2023-03-26T07:18:51.996Z,1
2023-03-26T07:29:03.926Z,0
2023-03-26T07:38:58.909Z,1
2023-03-26T07:49:02.900Z,0
2023-03-26T07:59:06.181Z,0
2023-03-26T08:09:09.288Z,0
2023-03-26T08:19:12.616Z,0
2023-03-26T08:29:16.247Z,0
2023-03-26T08:39:20.217Z,0
2023-03-26T08:49:25.235Z,2
2023-03-26T08:59:27.626Z,5
2023-03-26T09:09:30.919Z,0
2023-03-26T09:19:34.880Z,0
2023-03-26T09:29:38.505Z,0
2023-03-26T09:39:42.116Z,0
2023-03-26T09:49:45.905Z,0
2023-03-26T09:59:49.187Z,0
2023-03-26T10:09:52.722Z,0
2023-03-26T10:30:00.316Z,0
2023-03-26T10:40:03.704Z,0
2023-03-26T10:50:07.444Z,0
2023-03-26T11:00:11.148Z,0
2023-03-26T11:10:15.043Z,0
2023-03-26T11:20:18.544Z,1
2023-03-26T11:30:22.129Z,4
2023-03-26T11:40:25.823Z,2
2023-03-26T11:50:28.929Z,3
2023-03-26T12:00:32.398Z,4
2023-03-26T12:10:35.428Z,0
2023-03-26T12:20:38.526Z,2
2023-03-26T12:30:41.903Z,2
2023-03-26T12:40:45.604Z,0
2023-03-26T12:50:48.808Z,1
2023-03-26T13:10:56.342Z,4
2023-03-26T13:20:59.475Z,0
2023-03-26T13:31:03.380Z,0
2023-03-26T13:41:06.783Z,5
2023-03-26T13:51:10.761Z,7
2023-03-26T14:11:17.976Z,6
2023-03-26T14:21:21.291Z,4
2023-03-26T14:41:27.843Z,7
2023-03-26T15:51:53.303Z,12
2023-03-26T17:22:26.609Z,12
2023-03-26T18:02:48.639Z,13
2023-03-26T18:12:52.516Z,15
2023-03-26T18:22:55.910Z,8
2023-03-26T18:33:00.378Z,17
2023-03-26T18:43:03.035Z,10
2023-03-26T18:53:06.961Z,4
2023-03-26T19:03:10.244Z,8
2023-03-26T20:43:46.765Z,12
2023-03-26T20:53:49.990Z,18
2023-03-26T21:03:53.830Z,8
2023-03-26T21:13:57.710Z,11
2023-03-26T21:24:01.140Z,7
2023-03-26T21:34:04.431Z,7
2023-03-26T21:44:07.773Z,9
2023-03-26T21:54:11.576Z,3
2023-03-26T22:04:15.476Z,10
2023-03-26T22:14:18.929Z,10
2023-03-26T22:24:22.486Z,6
2023-03-26T22:34:25.969Z,4
2023-03-26T22:44:29.375Z,2
2023-03-26T23:04:36.399Z,8
2023-03-26T23:24:43.440Z,8
2023-03-26T23:44:50.098Z,5
2023-03-26T23:54:54.122Z,8
